createdAt,value
2018-12-06T00:00:51.857Z,90.80
2018-12-06T00:03:20.499Z,90.60
2018-12-06T00:05:49.615Z,90.70
2018-12-06T00:08:19.518Z,90.70
2018-12-06T00:10:48.110Z,90.40
2018-12-06T00:13:17.701Z,90.70
2018-12-06T00:15:46.375Z,90.50
2018-12-06T00:18:15.074Z,90.30
2018-12-06T00:20:43.688Z,90.40
2018-12-06T00:23:12.949Z,90.40
2018-12-06T00:25:42.170Z,90.80
2018-12-06T00:28:10.850Z,91.20
2018-12-06T00:30:41.244Z,90.90
2018-12-06T00:33:10.238Z,90.90
2018-12-06T00:35:38.873Z,91.10
2018-12-06T00:38:08.594Z,91.10
2018-12-06T00:40:37.229Z,91.40
2018-12-06T00:43:05.862Z,91.50
2018-12-06T00:45:34.469Z,91.80
2018-12-06T00:48:03.181Z,91.70
2018-12-06T00:50:31.853Z,91.80
2018-12-06T00:53:01.377Z,91.90
2018-12-06T00:55:31.385Z,91.90
2018-12-06T00:58:01.265Z,92.20
2018-12-06T01:00:31.796Z,91.80
2018-12-06T01:03:32.786Z,92.00
2018-12-06T01:06:02.278Z,91.70
2018-12-06T01:08:30.997Z,91.90
2018-12-06T01:11:03.397Z,91.90
2018-12-06T01:13:33.405Z,91.50
2018-12-06T01:16:03.002Z,91.30
2018-12-06T01:18:32.892Z,91.40
2018-12-06T01:21:02.102Z,92.10
2018-12-06T01:23:31.390Z,91.80
2018-12-06T01:26:00.526Z,91.50
2018-12-06T01:28:30.604Z,91.50
2018-12-06T01:30:59.770Z,91.80
2018-12-06T01:33:30.484Z,92.00
2018-12-06T01:35:59.182Z,92.40
2018-12-06T01:38:30.027Z,92.00
2018-12-06T01:40:58.749Z,91.90
2018-12-06T01:43:28.065Z,91.40
2018-12-06T01:45:57.773Z,91.50
2018-12-06T01:48:28.588Z,91.70
2018-12-06T01:50:58.266Z,91.10
2018-12-06T01:53:27.065Z,91.40
2018-12-06T01:55:56.166Z,91.60
2018-12-06T01:58:25.309Z,91.60
2018-12-06T02:00:55.586Z,92.10
2018-12-06T02:03:24.879Z,91.70
2018-12-06T02:05:54.213Z,91.90
2018-12-06T02:08:23.494Z,91.50
2018-12-06T02:10:52.902Z,91.90
2018-12-06T02:13:22.292Z,92.40
2018-12-06T02:15:51.703Z,92.10
2018-12-06T02:18:21.070Z,92.10
2018-12-06T02:20:50.512Z,92.80
2018-12-06T02:23:19.694Z,92.80
2018-12-06T02:25:49.009Z,93.20
2018-12-06T02:28:18.320Z,92.60
2018-12-06T02:30:47.920Z,92.60
2018-12-06T02:33:17.194Z,92.70
2018-12-06T02:35:46.522Z,92.60
2018-12-06T02:38:16.063Z,92.00
2018-12-06T02:40:45.529Z,93.20
2018-12-06T02:43:15.415Z,93.30
2018-12-06T02:45:44.649Z,93.50
2018-12-06T02:48:14.302Z,93.40
2018-12-06T02:50:43.638Z,92.80
2018-12-06T02:53:12.954Z,94.00
2018-12-06T02:55:42.451Z,94.70
2018-12-06T02:58:11.730Z,94.00
2018-12-06T03:00:40.950Z,94.70
2018-12-06T03:03:10.206Z,94.20
2018-12-06T03:05:39.448Z,94.70
2018-12-06T03:08:08.914Z,94.10
2018-12-06T03:10:38.336Z,95.00
2018-12-06T03:13:07.526Z,95.10
2018-12-06T03:15:37.151Z,94.50
2018-12-06T03:18:06.522Z,95.30
2018-12-06T03:20:35.868Z,95.80
2018-12-06T03:23:05.215Z,95.10
2018-12-06T03:25:34.648Z,94.90
2018-12-06T03:28:04.045Z,95.00
2018-12-06T03:30:33.278Z,95.70
2018-12-06T03:33:02.537Z,95.60
2018-12-06T03:35:31.852Z,95.20
2018-12-06T03:38:01.167Z,94.20
2018-12-06T03:40:30.359Z,95.30
2018-12-06T03:42:59.763Z,96.20
2018-12-06T03:45:29.129Z,95.90
2018-12-06T03:47:58.578Z,95.90
2018-12-06T03:50:27.953Z,93.00
2018-12-06T03:52:57.185Z,94.20
2018-12-06T03:55:26.422Z,95.20
2018-12-06T03:57:55.766Z,95.10
2018-12-06T04:00:25.027Z,94.20
2018-12-06T04:02:54.452Z,93.30
2018-12-06T04:05:23.855Z,93.80
2018-12-06T04:07:53.094Z,93.80
2018-12-06T04:10:22.323Z,93.30
2018-12-06T04:12:51.571Z,94.00
2018-12-06T04:15:20.813Z,91.90
2018-12-06T04:17:50.106Z,91.30
2018-12-06T04:20:19.333Z,92.50
2018-12-06T04:22:48.002Z,93.20
2018-12-06T04:25:16.622Z,93.20
2018-12-06T04:27:46.308Z,93.90
2018-12-06T04:30:14.958Z,93.70
2018-12-06T04:32:44.472Z,94.80
2018-12-06T04:35:13.101Z,94.60
2018-12-06T04:37:41.731Z,94.10
2018-12-06T04:40:10.379Z,93.80
2018-12-06T04:42:39.773Z,94.60
2018-12-06T04:45:11.529Z,94.90
2018-12-06T04:47:42.386Z,94.90
2018-12-06T04:50:11.029Z,93.80
2018-12-06T04:52:40.258Z,94.40
2018-12-06T04:55:08.875Z,94.60
2018-12-06T04:57:37.529Z,93.10
2018-12-06T05:00:06.376Z,93.60
2018-12-06T05:02:35.000Z,94.20
2018-12-06T05:05:04.793Z,94.80
2018-12-06T05:07:33.397Z,94.90
2018-12-06T05:10:02.550Z,94.40
2018-12-06T05:12:31.182Z,95.40
2018-12-06T05:15:01.446Z,94.10
2018-12-06T05:17:30.289Z,94.20
2018-12-06T05:19:59.078Z,93.50
2018-12-06T05:22:28.678Z,92.20
2018-12-06T05:24:58.074Z,93.80
2018-12-06T05:27:26.665Z,94.80
2018-12-06T05:29:55.666Z,95.30
2018-12-06T05:32:25.077Z,94.40
2018-12-06T05:34:53.773Z,93.30
2018-12-06T05:37:23.060Z,94.00
2018-12-06T05:39:52.406Z,93.00
2018-12-06T05:42:21.784Z,93.30
2018-12-06T05:44:50.425Z,91.40
2018-12-06T05:47:19.044Z,91.50
2018-12-06T05:49:47.754Z,93.10
2018-12-06T05:52:17.165Z,94.70
2018-12-06T05:54:45.808Z,94.60
2018-12-06T05:57:14.413Z,94.90
2018-12-06T05:59:43.041Z,95.30
2018-12-06T06:02:11.696Z,96.20
2018-12-06T06:04:40.341Z,95.30
2018-12-06T06:07:09.662Z,93.60
2018-12-06T06:09:38.768Z,93.40
2018-12-06T06:12:07.693Z,95.60
2018-12-06T06:14:36.962Z,95.70
2018-12-06T06:17:06.309Z,95.10
2018-12-06T06:19:34.934Z,93.60
2018-12-06T06:22:04.086Z,95.60
2018-12-06T06:24:33.441Z,95.20
2018-12-06T06:27:02.081Z,96.50
2018-12-06T06:29:30.698Z,94.20
2018-12-06T06:32:00.037Z,95.60
2018-12-06T06:34:29.254Z,95.70
2018-12-06T06:36:58.670Z,95.10
2018-12-06T06:39:27.302Z,93.10
2018-12-06T06:41:55.941Z,93.80
2018-12-06T06:44:25.423Z,94.90
2018-12-06T06:46:54.116Z,95.30
2018-12-06T06:49:24.475Z,93.50
2018-12-06T06:51:55.121Z,91.80
2018-12-06T06:54:24.882Z,94.70
2018-12-06T06:56:54.172Z,93.10
2018-12-06T06:59:26.233Z,94.70
2018-12-06T07:01:56.972Z,95.90
2018-12-06T07:04:26.098Z,94.40
2018-12-06T07:06:56.076Z,94.20
2018-12-06T07:09:25.969Z,94.40
2018-12-06T07:11:55.688Z,92.10
2018-12-06T07:14:26.056Z,92.70
2018-12-06T07:16:56.585Z,94.70
2018-12-06T07:19:26.509Z,95.00
2018-12-06T07:21:56.870Z,94.20
2018-12-06T07:24:26.781Z,95.00
2018-12-06T07:26:55.943Z,95.60
2018-12-06T07:29:24.569Z,96.10
2018-12-06T07:31:55.861Z,94.50
2018-12-06T07:34:27.114Z,93.90
2018-12-06T07:36:56.430Z,95.90
2018-12-06T07:39:26.841Z,96.00
2018-12-06T07:41:56.834Z,95.40
2018-12-06T07:44:26.067Z,93.20
2018-12-06T07:46:56.377Z,92.50
2018-12-06T07:49:26.958Z,95.80
2018-12-06T07:51:56.798Z,94.40
2018-12-06T07:54:25.525Z,92.80
2018-12-06T07:56:55.129Z,94.10
2018-12-06T07:59:24.913Z,92.20
2018-12-06T08:01:54.766Z,94.50
2018-12-06T08:04:24.666Z,92.70
2018-12-06T08:06:55.291Z,95.70
2018-12-06T08:09:24.567Z,93.10
2018-12-06T08:11:53.188Z,91.10
2018-12-06T08:14:23.403Z,94.20
2018-12-06T08:16:52.045Z,91.60
2018-12-06T08:19:21.846Z,95.50
2018-12-06T08:21:51.026Z,94.70
2018-12-06T08:24:21.101Z,95.30
2018-12-06T08:26:51.097Z,93.80
2018-12-06T08:29:20.418Z,94.70
2018-12-06T08:31:49.102Z,94.00
2018-12-06T08:34:18.105Z,94.70
2018-12-06T08:36:49.770Z,93.40
2018-12-06T08:39:19.362Z,94.00
2018-12-06T08:41:48.991Z,93.20
2018-12-06T08:44:21.479Z,93.60
2018-12-06T08:46:51.326Z,94.00
2018-12-06T08:49:20.462Z,96.00
2018-12-06T08:51:49.507Z,93.80
2018-12-06T08:54:19.759Z,91.90
2018-12-06T08:56:48.559Z,93.60
2018-12-06T08:59:18.385Z,92.70
2018-12-06T09:01:48.514Z,94.30
2018-12-06T09:04:18.983Z,94.60
2018-12-06T09:06:49.293Z,95.80
2018-12-06T09:09:18.735Z,96.60
2018-12-06T09:11:47.488Z,95.90
2018-12-06T09:14:17.594Z,94.80
2018-12-06T09:16:48.848Z,93.90
2018-12-06T09:19:18.170Z,96.20
2018-12-06T09:21:47.414Z,96.20
2018-12-06T09:24:17.613Z,95.00
2018-12-06T09:26:47.103Z,96.20
2018-12-06T09:29:16.637Z,91.80
2018-12-06T09:31:46.942Z,90.10
2018-12-06T09:34:15.757Z,93.40
2018-12-06T09:36:45.084Z,95.00
2018-12-06T09:39:15.115Z,94.70
2018-12-06T09:41:43.994Z,93.80
2018-12-06T09:44:14.633Z,95.10
2018-12-06T09:46:44.162Z,95.90
2018-12-06T09:49:12.844Z,95.00
2018-12-06T09:51:42.741Z,90.00
2018-12-06T09:54:13.638Z,92.70
2018-12-06T09:56:44.776Z,94.00
2018-12-06T09:59:14.098Z,94.30
2018-12-06T10:01:44.342Z,96.20
2018-12-06T10:04:14.089Z,96.90
2018-12-06T10:06:44.274Z,92.80
2018-12-06T10:09:14.155Z,92.20
2018-12-06T10:11:44.254Z,93.20
2018-12-06T10:14:14.953Z,95.20
2018-12-06T10:16:44.942Z,90.80
2018-12-06T10:19:13.744Z,94.50
2018-12-06T10:21:43.371Z,96.50
2018-12-06T10:24:13.513Z,92.90
2018-12-06T10:26:44.063Z,95.70
2018-12-06T10:29:12.742Z,95.70
2018-12-06T10:31:43.258Z,96.00
2018-12-06T10:34:12.581Z,94.80
2018-12-06T10:36:42.006Z,97.10
2018-12-06T10:39:10.716Z,96.20
2018-12-06T10:41:41.631Z,94.90
2018-12-06T10:44:14.630Z,95.60
2018-12-06T10:46:45.078Z,96.90
2018-12-06T10:49:13.992Z,96.40
2018-12-06T10:51:43.552Z,97.10
2018-12-06T10:54:12.962Z,96.40
2018-12-06T10:56:41.760Z,96.90
2018-12-06T10:59:11.632Z,97.20
2018-12-06T11:01:45.832Z,96.70
2018-12-06T11:04:14.545Z,95.30
2018-12-06T11:06:43.195Z,96.70
2018-12-06T11:09:11.953Z,97.20
2018-12-06T11:11:41.889Z,96.10
2018-12-06T11:14:11.116Z,94.40
2018-12-06T11:16:40.680Z,96.00
2018-12-06T11:19:10.190Z,96.20
2018-12-06T11:21:40.425Z,95.20
2018-12-06T11:24:11.488Z,97.00
2018-12-06T11:26:42.049Z,97.10
2018-12-06T11:29:11.835Z,96.20
2018-12-06T11:31:43.256Z,97.10
2018-12-06T11:34:13.106Z,97.20
2018-12-06T11:36:43.250Z,97.90
2018-12-06T11:39:13.583Z,97.70
2018-12-06T11:41:43.301Z,97.10
2018-12-06T11:44:12.755Z,97.90
2018-12-06T11:46:43.175Z,98.10
2018-12-06T11:49:12.009Z,97.10
2018-12-06T11:51:40.845Z,96.50
2018-12-06T11:54:11.855Z,96.90
2018-12-06T11:56:41.652Z,97.20
2018-12-06T11:59:10.990Z,97.00
2018-12-06T12:01:39.614Z,96.80
2018-12-06T12:04:08.909Z,97.50
2018-12-06T12:06:38.113Z,97.30
2018-12-06T12:09:09.022Z,95.00
2018-12-06T12:11:37.722Z,95.90
2018-12-06T12:14:06.930Z,95.40
2018-12-06T12:16:37.118Z,95.80
2018-12-06T12:19:05.840Z,96.30
2018-12-06T12:21:34.495Z,95.20
2018-12-06T12:24:03.141Z,95.60
2018-12-06T12:26:31.926Z,95.40
2018-12-06T12:29:01.293Z,95.20
2018-12-06T12:31:31.213Z,94.70
2018-12-06T12:34:00.426Z,95.20
2018-12-06T12:36:29.821Z,95.30
2018-12-06T12:38:59.585Z,95.00
2018-12-06T12:41:28.992Z,94.40
2018-12-06T12:43:58.323Z,95.30
2018-12-06T12:46:31.373Z,95.20
2018-12-06T12:49:01.582Z,92.80
2018-12-06T12:51:31.784Z,93.10
2018-12-06T12:54:00.933Z,93.80
2018-12-06T12:56:30.107Z,92.40
2018-12-06T12:59:00.014Z,93.70
2018-12-06T13:01:29.342Z,94.30
2018-12-06T13:03:58.025Z,94.40
2018-12-06T13:06:26.713Z,93.40
2018-12-06T13:08:55.373Z,95.00
2018-12-06T13:11:24.013Z,95.50
2018-12-06T13:13:53.303Z,94.60
2018-12-06T13:16:22.775Z,94.00
2018-12-06T13:18:51.642Z,93.70
2018-12-06T13:21:20.659Z,94.00
2018-12-06T13:23:49.790Z,94.00
2018-12-06T13:26:18.486Z,94.60
2018-12-06T13:28:47.166Z,94.80
2018-12-06T13:31:15.958Z,93.10
2018-12-06T13:33:45.001Z,94.10
2018-12-06T13:36:14.149Z,94.20
2018-12-06T13:38:43.375Z,92.70
2018-12-06T13:41:12.670Z,94.00
2018-12-06T13:43:41.336Z,93.20
2018-12-06T13:46:10.034Z,94.00
2018-12-06T13:48:39.012Z,93.30
2018-12-06T13:51:07.948Z,94.00
2018-12-06T13:53:37.901Z,91.40
2018-12-06T13:56:08.172Z,91.60
2018-12-06T13:58:38.956Z,90.70
2018-12-06T14:01:08.810Z,92.70
2018-12-06T14:03:39.015Z,93.10
2018-12-06T14:06:09.373Z,91.70
2018-12-06T14:08:38.670Z,90.50
2018-12-06T14:11:07.966Z,91.70
2018-12-06T14:13:38.405Z,93.30
2018-12-06T14:16:10.631Z,93.20
2018-12-06T14:18:40.655Z,94.00
2018-12-06T14:21:10.715Z,91.30
2018-12-06T14:23:40.562Z,92.80
2018-12-06T14:26:11.183Z,93.50
2018-12-06T14:28:41.602Z,94.10
2018-12-06T14:31:11.521Z,93.80
2018-12-06T14:33:40.684Z,93.50
2018-12-06T14:36:10.855Z,93.20
2018-12-06T14:38:40.198Z,94.30
2018-12-06T14:41:09.629Z,91.60
2018-12-06T14:43:40.486Z,92.70
2018-12-06T14:46:09.784Z,93.70
2018-12-06T14:48:41.538Z,94.10
2018-12-06T14:51:12.606Z,92.80
2018-12-06T14:53:42.745Z,92.80
2018-12-06T14:56:13.901Z,93.30
2018-12-06T14:58:44.723Z,92.90
2018-12-06T15:01:14.017Z,94.40
2018-12-06T15:03:44.061Z,93.70
2018-12-06T15:06:13.071Z,93.00
2018-12-06T15:08:42.998Z,93.60
2018-12-06T15:11:12.281Z,93.50
2018-12-06T15:13:42.463Z,93.20
2018-12-06T15:16:12.593Z,92.20
2018-12-06T15:18:42.774Z,93.50
2018-12-06T15:21:11.409Z,93.60
2018-12-06T15:23:40.939Z,93.60
2018-12-06T15:26:10.207Z,93.10
2018-12-06T15:28:39.466Z,93.10
2018-12-06T15:31:08.418Z,92.40
2018-12-06T15:33:37.642Z,93.40
2018-12-06T15:36:07.926Z,93.30
2018-12-06T15:38:37.331Z,93.00
2018-12-06T15:41:09.124Z,92.50
2018-12-06T15:43:39.009Z,92.80
2018-12-06T15:46:09.254Z,92.30
2018-12-06T15:48:37.925Z,92.90
2018-12-06T15:51:07.341Z,92.30
2018-12-06T15:53:36.018Z,92.30
2018-12-06T15:56:04.804Z,92.70
2018-12-06T15:58:34.731Z,92.90
2018-12-06T16:01:04.026Z,92.80
2018-12-06T16:03:32.689Z,92.80
2018-12-06T16:06:01.980Z,92.10
2018-12-06T16:08:32.569Z,92.20
2018-12-06T16:11:01.862Z,92.00
2018-12-06T16:13:31.373Z,93.10
2018-12-06T16:16:00.040Z,93.40
2018-12-06T16:18:28.706Z,93.50
2018-12-06T16:20:57.753Z,92.40
2018-12-06T16:23:26.501Z,93.10
2018-12-06T16:25:55.865Z,93.60
2018-12-06T16:28:24.578Z,93.80
2018-12-06T16:30:53.417Z,93.40
2018-12-06T16:33:22.673Z,93.00
2018-12-06T16:35:52.753Z,93.70
2018-12-06T16:38:22.083Z,92.70
2018-12-06T16:40:50.847Z,93.30
2018-12-06T16:43:20.294Z,92.00
2018-12-06T16:45:49.577Z,93.00
2018-12-06T16:48:19.288Z,93.10
2018-12-06T16:50:48.675Z,92.30
2018-12-06T16:53:17.330Z,92.80
2018-12-06T16:55:46.018Z,92.50
2018-12-06T16:58:15.365Z,92.80
2018-12-06T17:00:45.278Z,92.50
2018-12-06T17:03:13.922Z,93.10
2018-12-06T17:05:43.277Z,91.80
2018-12-06T17:08:13.209Z,92.20
2018-12-06T17:10:41.914Z,93.10
2018-12-06T17:13:10.514Z,92.90
2018-12-06T17:15:39.904Z,93.80
2018-12-06T17:18:09.816Z,93.60
2018-12-06T17:20:38.497Z,94.00
2018-12-06T17:23:07.794Z,94.00
2018-12-06T17:25:36.457Z,93.90
2018-12-06T17:28:05.108Z,93.70
2018-12-06T17:30:34.113Z,92.80
2018-12-06T17:33:02.736Z,94.10
2018-12-06T17:35:31.385Z,93.40
2018-12-06T17:38:00.737Z,93.40
2018-12-06T17:40:29.388Z,93.20
2018-12-06T17:42:58.101Z,93.40
2018-12-06T17:45:26.735Z,93.80
2018-12-06T17:47:55.492Z,92.60
2018-12-06T17:50:24.845Z,93.00
2018-12-06T17:52:54.176Z,93.00
2018-12-06T17:55:23.581Z,93.10
2018-12-06T17:57:53.158Z,93.30
2018-12-06T18:00:21.842Z,93.30
2018-12-06T18:02:52.215Z,93.10
2018-12-06T18:05:21.574Z,93.00
2018-12-06T18:07:50.235Z,93.60
2018-12-06T18:10:19.330Z,92.90
2018-12-06T18:12:48.609Z,92.20
2018-12-06T18:15:17.253Z,92.90
2018-12-06T18:17:46.583Z,92.30
2018-12-06T18:20:15.240Z,93.10
2018-12-06T18:22:43.911Z,93.20
2018-12-06T18:25:13.200Z,93.30
2018-12-06T18:27:41.845Z,93.30
2018-12-06T18:30:11.675Z,91.90
2018-12-06T18:32:41.245Z,93.50
2018-12-06T18:35:10.838Z,93.10
2018-12-06T18:37:40.429Z,93.00
2018-12-06T18:40:10.149Z,93.60
2018-12-06T18:42:40.126Z,93.80
2018-12-06T18:45:09.585Z,93.80
2018-12-06T18:47:39.254Z,94.10
2018-12-06T18:50:08.028Z,94.50
2018-12-06T18:52:36.706Z,94.20
2018-12-06T18:55:05.940Z,94.10
2018-12-06T18:57:35.155Z,94.90
2018-12-06T19:00:04.741Z,95.00
2018-12-06T19:02:34.132Z,95.00
2018-12-06T19:05:04.191Z,95.60
2018-12-06T19:07:33.346Z,95.20
2018-12-06T19:10:02.874Z,95.80
2018-12-06T19:12:32.117Z,93.70
2018-12-06T19:15:00.766Z,94.80
2018-12-06T19:17:29.385Z,94.70
2018-12-06T19:19:58.062Z,94.80
2018-12-06T19:22:26.813Z,92.70
2018-12-06T19:24:55.481Z,93.60
2018-12-06T19:27:24.126Z,94.30
2018-12-06T19:29:54.139Z,94.60
2018-12-06T19:32:22.757Z,94.60
2018-12-06T19:34:51.530Z,93.40
2018-12-06T19:37:20.137Z,94.00
2018-12-06T19:39:49.503Z,93.20
2018-12-06T19:42:18.749Z,93.50
2018-12-06T19:44:47.389Z,92.70
2018-12-06T19:47:16.193Z,93.90
2018-12-06T19:49:44.877Z,93.30
2018-12-06T19:52:13.746Z,93.40
2018-12-06T19:54:42.426Z,93.40
2018-12-06T19:57:11.089Z,92.70
2018-12-06T19:59:40.473Z,94.10
2018-12-06T20:02:09.245Z,94.10
2018-12-06T20:04:37.854Z,94.50
2018-12-06T20:07:06.692Z,94.70
2018-12-06T20:09:36.254Z,94.40
2018-12-06T20:12:05.174Z,94.40
2018-12-06T20:14:34.803Z,93.20
2018-12-06T20:17:03.498Z,93.70
2018-12-06T20:19:32.162Z,94.10
2018-12-06T20:22:01.403Z,94.40
2018-12-06T20:24:30.646Z,93.10
2018-12-06T20:26:59.852Z,94.00
2018-12-06T20:29:28.969Z,94.10
2018-12-06T20:31:57.639Z,93.90
2018-12-06T20:34:26.294Z,94.00
2018-12-06T20:36:55.029Z,92.90
2018-12-06T20:39:23.686Z,93.40
2018-12-06T20:41:53.301Z,94.20
2018-12-06T20:44:23.172Z,94.10
2018-12-06T20:46:52.605Z,93.90
2018-12-06T20:49:22.425Z,93.70
2018-12-06T20:51:52.213Z,94.30
2018-12-06T20:54:20.927Z,93.90
2018-12-06T20:56:50.198Z,94.20
2018-12-06T20:59:18.858Z,94.20
2018-12-06T21:01:47.585Z,94.20
2018-12-06T21:04:16.815Z,93.60
2018-12-06T21:06:45.986Z,94.10
2018-12-06T21:09:14.633Z,94.40
2018-12-06T21:11:45.626Z,94.10
2018-12-06T21:14:14.273Z,94.00
2018-12-06T21:16:43.037Z,93.60
2018-12-06T21:19:11.741Z,93.80
2018-12-06T21:21:40.424Z,93.80
2018-12-06T21:24:09.722Z,94.20
2018-12-06T21:26:38.378Z,93.90
2018-12-06T21:29:07.030Z,94.10
2018-12-06T21:31:36.149Z,93.80
2018-12-06T21:34:04.816Z,94.20
2018-12-06T21:36:33.918Z,94.50
2018-12-06T21:39:02.654Z,94.00
2018-12-06T21:41:31.765Z,94.10
2018-12-06T21:44:00.433Z,94.00
2018-12-06T21:46:29.110Z,94.00
2018-12-06T21:48:57.837Z,94.00
2018-12-06T21:51:26.490Z,93.60
2018-12-06T21:53:55.915Z,93.20
2018-12-06T21:56:24.738Z,93.50
2018-12-06T21:58:55.349Z,94.00
2018-12-06T22:01:24.673Z,94.00
2018-12-06T22:03:54.253Z,93.80
2018-12-06T22:06:22.930Z,93.40
2018-12-06T22:08:51.599Z,94.00
2018-12-06T22:11:21.559Z,94.50
2018-12-06T22:13:51.643Z,93.50
2018-12-06T22:16:20.992Z,93.70
2018-12-06T22:18:50.250Z,93.80
2018-12-06T22:21:20.773Z,93.60
2018-12-06T22:23:51.961Z,93.90
2018-12-06T22:26:21.764Z,93.80
2018-12-06T22:28:51.935Z,94.40
2018-12-06T22:31:20.577Z,94.90
2018-12-06T22:33:50.025Z,95.60
2018-12-06T22:36:19.337Z,96.00
2018-12-06T22:38:48.505Z,96.40
2018-12-06T22:41:18.581Z,96.10
2018-12-06T22:43:48.801Z,96.30
2018-12-06T22:46:19.306Z,96.60
2018-12-06T22:48:49.671Z,97.00
2018-12-06T22:51:24.219Z,97.70
2018-12-06T22:53:49.958Z,98.10
2018-12-06T22:56:19.187Z,97.30
2018-12-06T22:58:48.700Z,98.50
2018-12-06T23:01:22.924Z,98.80
2018-12-06T23:03:52.314Z,99.40
2018-12-06T23:06:21.488Z,98.60
2018-12-06T23:08:51.921Z,98.60
2018-12-06T23:11:21.410Z,97.50
2018-12-06T23:13:51.938Z,97.90
2018-12-06T23:16:21.345Z,98.20
2018-12-06T23:18:51.089Z,98.50
2018-12-06T23:21:20.577Z,98.40
2018-12-06T23:23:49.957Z,96.90
2018-12-06T23:26:19.441Z,97.80
2018-12-06T23:28:49.408Z,97.20
2018-12-06T23:31:19.681Z,98.00
2018-12-06T23:33:48.990Z,97.80
2018-12-06T23:36:19.689Z,97.50
2018-12-06T23:38:50.501Z,97.30
2018-12-06T23:41:20.869Z,97.50
2018-12-06T23:43:51.594Z,96.70
2018-12-06T23:46:20.746Z,95.40
2018-12-06T23:48:51.050Z,96.10
2018-12-06T23:51:35.873Z,96.00
2018-12-06T23:54:05.688Z,96.10
2018-12-06T23:56:35.230Z,95.60
2018-12-06T23:59:03.957Z,95.20
